sensor_id;sensor_type;location;lat;lon;timestamp;temperature;humidity
16929;DHT22;8581;47.334;11.190;2023-04-30T00:00:47;8.70;99.90
16929;DHT22;8581;47.334;11.190;2023-04-30T00:03:18;8.60;99.90
16929;DHT22;8581;47.334;11.190;2023-04-30T00:05:50;8.70;99.90
16929;DHT22;8581;47.334;11.190;2023-04-30T00:08:21;8.70;99.90
16929;DHT22;8581;47.334;11.190;2023-04-30T00:10:53;8.70;99.90
16929;DHT22;8581;47.334;11.190;2023-04-30T00:13:24;9.00;99.90
16929;DHT22;8581;47.334;11.190;2023-04-30T00:15:56;8.90;99.90
16929;DHT22;8581;47.334;11.190;2023-04-30T00:18:28;8.80;99.90
16929;DHT22;8581;47.334;11.190;2023-04-30T00:20:59;8.80;99.90
16929;DHT22;8581;47.334;11.190;2023-04-30T00:23:31;9.00;99.90
16929;DHT22;8581;47.334;11.190;2023-04-30T00:26:02;9.00;99.90
16929;DHT22;8581;47.334;11.190;2023-04-30T00:28:34;9.10;99.90
16929;DHT22;8581;47.334;11.190;2023-04-30T00:31:06;9.20;99.90
16929;DHT22;8581;47.334;11.190;2023-04-30T00:33:37;9.20;99.90
16929;DHT22;8581;47.334;11.190;2023-04-30T00:36:09;9.10;99.90
16929;DHT22;8581;47.334;11.190;2023-04-30T00:38:40;9.20;99.90
16929;DHT22;8581;47.334;11.190;2023-04-30T00:41:12;9.10;99.90
16929;DHT22;8581;47.334;11.190;2023-04-30T00:43:44;9.00;99.90
16929;DHT22;8581;47.334;11.190;2023-04-30T00:46:15;9.00;99.90
16929;DHT22;8581;47.334;11.190;2023-04-30T00:48:47;9.00;99.90
16929;DHT22;8581;47.334;11.190;2023-04-30T00:51:19;9.10;99.90
16929;DHT22;8581;47.334;11.190;2023-04-30T00:53:50;9.20;99.90
16929;DHT22;8581;47.334;11.190;2023-04-30T00:56:22;9.30;99.90
16929;DHT22;8581;47.334;11.190;2023-04-30T00:58:53;9.30;99.90
16929;DHT22;8581;47.334;11.190;2023-04-30T01:01:25;9.40;99.90
16929;DHT22;8581;47.334;11.190;2023-04-30T01:03:57;9.30;99.90
16929;DHT22;8581;47.334;11.190;2023-04-30T01:06:28;9.20;99.90
16929;DHT22;8581;47.334;11.190;2023-04-30T01:09:00;9.10;99.90
16929;DHT22;8581;47.334;11.190;2023-04-30T01:14:29;9.10;99.90
16929;DHT22;8581;47.334;11.190;2023-04-30T01:19:46;9.00;99.90
16929;DHT22;8581;47.334;11.190;2023-04-30T01:22:35;9.10;99.90
16929;DHT22;8581;47.334;11.190;2023-04-30T01:25:24;9.10;99.90
16929;DHT22;8581;47.334;11.190;2023-04-30T01:28:02;9.10;99.90
16929;DHT22;8581;47.334;11.190;2023-04-30T01:30:35;8.90;99.90
16929;DHT22;8581;47.334;11.190;2023-04-30T01:33:06;8.90;99.90
16929;DHT22;8581;47.334;11.190;2023-04-30T01:35:52;8.80;99.90
16929;DHT22;8581;47.334;11.190;2023-04-30T01:38:48;8.90;99.90
16929;DHT22;8581;47.334;11.190;2023-04-30T01:41:27;8.90;99.90
16929;DHT22;8581;47.334;11.190;2023-04-30T01:45:11;8.80;99.90
16929;DHT22;8581;47.334;11.190;2023-04-30T01:46:52;8.60;99.90
16929;DHT22;8581;47.334;11.190;2023-04-30T01:49:26;8.60;99.90
16929;DHT22;8581;47.334;11.190;2023-04-30T01:51:57;8.60;99.90
16929;DHT22;8581;47.334;11.190;2023-04-30T01:54:28;8.50;99.90
16929;DHT22;8581;47.334;11.190;2023-04-30T01:57:04;8.60;99.90
16929;DHT22;8581;47.334;11.190;2023-04-30T01:59:35;8.60;99.90
16929;DHT22;8581;47.334;11.190;2023-04-30T02:02:06;8.70;99.90
16929;DHT22;8581;47.334;11.190;2023-04-30T02:04:37;8.70;99.90
16929;DHT22;8581;47.334;11.190;2023-04-30T02:07:09;8.90;99.90
16929;DHT22;8581;47.334;11.190;2023-04-30T02:09:41;8.70;99.90
16929;DHT22;8581;47.334;11.190;2023-04-30T02:12:12;8.70;99.90
16929;DHT22;8581;47.334;11.190;2023-04-30T02:14:44;8.70;99.90
16929;DHT22;8581;47.334;11.190;2023-04-30T02:17:15;8.40;99.90
16929;DHT22;8581;47.334;11.190;2023-04-30T02:19:47;8.40;99.90
16929;DHT22;8581;47.334;11.190;2023-04-30T02:22:19;8.50;99.90
16929;DHT22;8581;47.334;11.190;2023-04-30T02:24:50;8.60;99.90
16929;DHT22;8581;47.334;11.190;2023-04-30T02:27:22;8.70;99.90
16929;DHT22;8581;47.334;11.190;2023-04-30T02:29:53;8.50;99.90
16929;DHT22;8581;47.334;11.190;2023-04-30T02:32:25;8.40;99.90
16929;DHT22;8581;47.334;11.190;2023-04-30T02:34:57;8.50;99.90
16929;DHT22;8581;47.334;11.190;2023-04-30T02:37:28;8.50;99.90
16929;DHT22;8581;47.334;11.190;2023-04-30T02:40:00;8.50;99.90
16929;DHT22;8581;47.334;11.190;2023-04-30T02:42:32;8.70;99.90
16929;DHT22;8581;47.334;11.190;2023-04-30T02:45:04;8.70;99.90
16929;DHT22;8581;47.334;11.190;2023-04-30T02:47:35;8.70;99.90
16929;DHT22;8581;47.334;11.190;2023-04-30T02:50:08;8.70;99.90
16929;DHT22;8581;47.334;11.190;2023-04-30T02:52:39;8.60;99.90
16929;DHT22;8581;47.334;11.190;2023-04-30T02:55:11;8.50;99.90
16929;DHT22;8581;47.334;11.190;2023-04-30T02:57:43;8.50;99.90
16929;DHT22;8581;47.334;11.190;2023-04-30T03:00:14;8.40;99.90
16929;DHT22;8581;47.334;11.190;2023-04-30T03:02:46;8.50;99.90
16929;DHT22;8581;47.334;11.190;2023-04-30T03:05:17;8.50;99.90
16929;DHT22;8581;47.334;11.190;2023-04-30T03:07:49;8.60;99.90
16929;DHT22;8581;47.334;11.190;2023-04-30T03:10:20;8.70;99.90
16929;DHT22;8581;47.334;11.190;2023-04-30T03:12:52;8.60;99.90
16929;DHT22;8581;47.334;11.190;2023-04-30T03:15:24;8.70;99.90
16929;DHT22;8581;47.334;11.190;2023-04-30T03:17:55;8.60;99.90
16929;DHT22;8581;47.334;11.190;2023-04-30T03:20:27;8.40;99.90
16929;DHT22;8581;47.334;11.190;2023-04-30T03:22:58;8.40;99.90
16929;DHT22;8581;47.334;11.190;2023-04-30T03:25:30;8.50;99.90
16929;DHT22;8581;47.334;11.190;2023-04-30T03:28:02;8.70;99.90
16929;DHT22;8581;47.334;11.190;2023-04-30T03:30:33;8.70;99.90
16929;DHT22;8581;47.334;11.190;2023-04-30T03:33:05;8.70;99.90
16929;DHT22;8581;47.334;11.190;2023-04-30T03:35:37;8.60;99.90
16929;DHT22;8581;47.334;11.190;2023-04-30T03:38:08;8.50;99.90
16929;DHT22;8581;47.334;11.190;2023-04-30T03:40:40;8.60;99.90
16929;DHT22;8581;47.334;11.190;2023-04-30T03:43:11;8.60;99.90
16929;DHT22;8581;47.334;11.190;2023-04-30T03:45:43;8.60;99.90
16929;DHT22;8581;47.334;11.190;2023-04-30T03:48:14;8.50;99.90
16929;DHT22;8581;47.334;11.190;2023-04-30T03:50:46;8.60;99.90
16929;DHT22;8581;47.334;11.190;2023-04-30T03:53:18;8.60;99.90
16929;DHT22;8581;47.334;11.190;2023-04-30T03:55:49;8.60;99.90
16929;DHT22;8581;47.334;11.190;2023-04-30T03:58:21;8.60;99.90
16929;DHT22;8581;47.334;11.190;2023-04-30T04:00:52;8.50;99.90
16929;DHT22;8581;47.334;11.190;2023-04-30T04:03:24;8.50;99.90
16929;DHT22;8581;47.334;11.190;2023-04-30T04:05:56;8.70;99.90
16929;DHT22;8581;47.334;11.190;2023-04-30T04:08:27;8.60;99.90
16929;DHT22;8581;47.334;11.190;2023-04-30T04:10:59;8.70;99.90
16929;DHT22;8581;47.334;11.190;2023-04-30T04:13:30;8.70;99.90
16929;DHT22;8581;47.334;11.190;2023-04-30T04:16:02;8.70;99.90
16929;DHT22;8581;47.334;11.190;2023-04-30T04:18:34;8.60;99.90
16929;DHT22;8581;47.334;11.190;2023-04-30T04:21:05;8.60;99.90
16929;DHT22;8581;47.334;11.190;2023-04-30T04:23:37;8.50;99.90
16929;DHT22;8581;47.334;11.190;2023-04-30T04:26:09;8.60;99.90
16929;DHT22;8581;47.334;11.190;2023-04-30T04:28:40;8.50;99.90
16929;DHT22;8581;47.334;11.190;2023-04-30T04:31:12;8.50;99.90
16929;DHT22;8581;47.334;11.190;2023-04-30T04:33:43;8.70;99.90
16929;DHT22;8581;47.334;11.190;2023-04-30T04:36:15;8.70;99.90
16929;DHT22;8581;47.334;11.190;2023-04-30T04:38:47;8.70;99.90
16929;DHT22;8581;47.334;11.190;2023-04-30T04:41:18;8.70;99.90
16929;DHT22;8581;47.334;11.190;2023-04-30T04:43:50;8.60;99.90
16929;DHT22;8581;47.334;11.190;2023-04-30T04:46:21;8.50;99.90
16929;DHT22;8581;47.334;11.190;2023-04-30T04:48:53;8.50;99.90
16929;DHT22;8581;47.334;11.190;2023-04-30T04:51:25;8.60;99.90
16929;DHT22;8581;47.334;11.190;2023-04-30T04:53:56;8.50;99.90
16929;DHT22;8581;47.334;11.190;2023-04-30T04:56:28;8.40;99.90
16929;DHT22;8581;47.334;11.190;2023-04-30T04:59:00;8.40;99.90
16929;DHT22;8581;47.334;11.190;2023-04-30T05:01:31;8.60;99.90
16929;DHT22;8581;47.334;11.190;2023-04-30T05:04:03;8.60;99.90
16929;DHT22;8581;47.334;11.190;2023-04-30T05:06:34;8.60;99.90
16929;DHT22;8581;47.334;11.190;2023-04-30T05:09:06;8.70;99.90
16929;DHT22;8581;47.334;11.190;2023-04-30T05:11:38;8.80;99.90
16929;DHT22;8581;47.334;11.190;2023-04-30T05:14:09;8.70;99.90
16929;DHT22;8581;47.334;11.190;2023-04-30T05:16:41;8.80;99.90
16929;DHT22;8581;47.334;11.190;2023-04-30T05:19:13;8.90;99.90
16929;DHT22;8581;47.334;11.190;2023-04-30T05:21:44;8.90;99.90
16929;DHT22;8581;47.334;11.190;2023-04-30T05:24:16;8.90;99.90
16929;DHT22;8581;47.334;11.190;2023-04-30T05:26:47;9.00;99.90
16929;DHT22;8581;47.334;11.190;2023-04-30T05:29:19;9.00;99.90
16929;DHT22;8581;47.334;11.190;2023-04-30T05:31:51;9.00;99.90
16929;DHT22;8581;47.334;11.190;2023-04-30T05:34:22;9.00;99.90
16929;DHT22;8581;47.334;11.190;2023-04-30T05:36:54;9.00;99.90
16929;DHT22;8581;47.334;11.190;2023-04-30T05:39:26;9.00;99.90
16929;DHT22;8581;47.334;11.190;2023-04-30T05:41:57;9.00;99.90
16929;DHT22;8581;47.334;11.190;2023-04-30T05:44:29;9.00;99.90
16929;DHT22;8581;47.334;11.190;2023-04-30T05:47:00;9.20;99.90
16929;DHT22;8581;47.334;11.190;2023-04-30T05:49:32;9.30;99.90
16929;DHT22;8581;47.334;11.190;2023-04-30T05:52:04;9.30;99.90
16929;DHT22;8581;47.334;11.190;2023-04-30T05:54:36;9.30;99.90
16929;DHT22;8581;47.334;11.190;2023-04-30T05:57:07;9.30;99.90
16929;DHT22;8581;47.334;11.190;2023-04-30T05:59:39;9.70;99.90
16929;DHT22;8581;47.334;11.190;2023-04-30T06:02:10;9.50;99.90
16929;DHT22;8581;47.334;11.190;2023-04-30T06:04:42;9.50;99.90
16929;DHT22;8581;47.334;11.190;2023-04-30T06:07:14;9.80;99.90
16929;DHT22;8581;47.334;11.190;2023-04-30T06:09:45;9.70;99.90
16929;DHT22;8581;47.334;11.190;2023-04-30T06:12:17;9.60;99.90
16929;DHT22;8581;47.334;11.190;2023-04-30T06:14:48;9.70;99.90
16929;DHT22;8581;47.334;11.190;2023-04-30T06:17:20;9.60;99.90
16929;DHT22;8581;47.334;11.190;2023-04-30T06:19:51;9.70;99.90
16929;DHT22;8581;47.334;11.190;2023-04-30T06:22:23;9.30;99.90
16929;DHT22;8581;47.334;11.190;2023-04-30T06:24:55;9.40;99.90
16929;DHT22;8581;47.334;11.190;2023-04-30T06:27:26;9.40;99.90
16929;DHT22;8581;47.334;11.190;2023-04-30T06:29:58;9.50;99.90
16929;DHT22;8581;47.334;11.190;2023-04-30T06:32:30;9.60;99.90
16929;DHT22;8581;47.334;11.190;2023-04-30T06:35:01;9.60;99.90
16929;DHT22;8581;47.334;11.190;2023-04-30T06:37:33;9.70;99.90
16929;DHT22;8581;47.334;11.190;2023-04-30T06:40:05;10.00;99.90
16929;DHT22;8581;47.334;11.190;2023-04-30T06:42:37;10.00;99.90
16929;DHT22;8581;47.334;11.190;2023-04-30T06:45:10;9.90;99.90
16929;DHT22;8581;47.334;11.190;2023-04-30T06:47:41;10.00;99.90
16929;DHT22;8581;47.334;11.190;2023-04-30T06:50:13;10.00;99.90
16929;DHT22;8581;47.334;11.190;2023-04-30T06:52:45;10.00;99.90
16929;DHT22;8581;47.334;11.190;2023-04-30T06:55:16;10.10;99.90
16929;DHT22;8581;47.334;11.190;2023-04-30T06:57:48;10.40;99.90
16929;DHT22;8581;47.334;11.190;2023-04-30T07:00:20;10.30;99.90
16929;DHT22;8581;47.334;11.190;2023-04-30T07:02:52;10.60;99.90
16929;DHT22;8581;47.334;11.190;2023-04-30T07:05:24;10.40;99.90
16929;DHT22;8581;47.334;11.190;2023-04-30T07:07:56;10.40;99.90
16929;DHT22;8581;47.334;11.190;2023-04-30T07:10:27;10.60;99.90
16929;DHT22;8581;47.334;11.190;2023-04-30T07:12:58;10.90;99.90
16929;DHT22;8581;47.334;11.190;2023-04-30T07:15:30;11.10;99.90
16929;DHT22;8581;47.334;11.190;2023-04-30T07:18:02;11.30;99.90
16929;DHT22;8581;47.334;11.190;2023-04-30T07:20:33;11.30;99.90
16929;DHT22;8581;47.334;11.190;2023-04-30T07:23:05;11.50;99.90
16929;DHT22;8581;47.334;11.190;2023-04-30T07:25:37;11.10;99.90
16929;DHT22;8581;47.334;11.190;2023-04-30T07:28:08;11.20;99.90
16929;DHT22;8581;47.334;11.190;2023-04-30T07:30:40;11.40;99.90
16929;DHT22;8581;47.334;11.190;2023-04-30T07:33:11;11.50;99.90
16929;DHT22;8581;47.334;11.190;2023-04-30T07:35:43;11.70;99.90
16929;DHT22;8581;47.334;11.190;2023-04-30T07:38:15;11.70;99.90
16929;DHT22;8581;47.334;11.190;2023-04-30T07:40:46;11.70;99.90
16929;DHT22;8581;47.334;11.190;2023-04-30T07:43:18;12.10;99.90
16929;DHT22;8581;47.334;11.190;2023-04-30T07:45:49;11.80;99.90
16929;DHT22;8581;47.334;11.190;2023-04-30T07:48:21;11.90;99.90
16929;DHT22;8581;47.334;11.190;2023-04-30T07:50:53;12.20;99.90
16929;DHT22;8581;47.334;11.190;2023-04-30T07:53:24;12.40;99.90
16929;DHT22;8581;47.334;11.190;2023-04-30T07:55:56;12.40;99.90
16929;DHT22;8581;47.334;11.190;2023-04-30T07:58:27;12.10;99.90
16929;DHT22;8581;47.334;11.190;2023-04-30T08:00:59;12.30;99.90
16929;DHT22;8581;47.334;11.190;2023-04-30T08:03:31;12.50;99.90
16929;DHT22;8581;47.334;11.190;2023-04-30T08:06:03;12.50;99.90
16929;DHT22;8581;47.334;11.190;2023-04-30T08:08:34;12.80;99.90
16929;DHT22;8581;47.334;11.190;2023-04-30T08:11:06;13.60;99.90
16929;DHT22;8581;47.334;11.190;2023-04-30T08:13:38;13.70;99.90
16929;DHT22;8581;47.334;11.190;2023-04-30T08:16:09;13.90;99.90
16929;DHT22;8581;47.334;11.190;2023-04-30T08:18:41;14.00;99.90
16929;DHT22;8581;47.334;11.190;2023-04-30T08:21:20;14.10;99.90
16929;DHT22;8581;47.334;11.190;2023-04-30T08:23:52;14.30;99.90
16929;DHT22;8581;47.334;11.190;2023-04-30T08:26:24;14.40;99.90
16929;DHT22;8581;47.334;11.190;2023-04-30T08:29:00;14.40;99.90
16929;DHT22;8581;47.334;11.190;2023-04-30T08:31:35;14.50;99.90
16929;DHT22;8581;47.334;11.190;2023-04-30T08:34:06;14.10;99.90
16929;DHT22;8581;47.334;11.190;2023-04-30T08:36:38;14.60;99.90
16929;DHT22;8581;47.334;11.190;2023-04-30T08:39:09;14.60;99.90
16929;DHT22;8581;47.334;11.190;2023-04-30T08:41:41;14.90;99.90
16929;DHT22;8581;47.334;11.190;2023-04-30T08:44:13;15.00;99.90
16929;DHT22;8581;47.334;11.190;2023-04-30T08:46:44;14.70;99.90
16929;DHT22;8581;47.334;11.190;2023-04-30T08:49:16;15.10;99.90
16929;DHT22;8581;47.334;11.190;2023-04-30T08:51:48;15.40;99.90
16929;DHT22;8581;47.334;11.190;2023-04-30T08:54:19;14.70;99.90
16929;DHT22;8581;47.334;11.190;2023-04-30T08:56:51;14.10;99.90
16929;DHT22;8581;47.334;11.190;2023-04-30T08:59:22;13.70;99.90
16929;DHT22;8581;47.334;11.190;2023-04-30T09:01:54;13.80;99.90
16929;DHT22;8581;47.334;11.190;2023-04-30T09:04:26;13.90;99.90
16929;DHT22;8581;47.334;11.190;2023-04-30T09:06:57;13.90;99.90
16929;DHT22;8581;47.334;11.190;2023-04-30T09:09:30;13.80;99.90
16929;DHT22;8581;47.334;11.190;2023-04-30T09:12:10;13.70;99.90
16929;DHT22;8581;47.334;11.190;2023-04-30T09:14:41;14.20;99.90
16929;DHT22;8581;47.334;11.190;2023-04-30T09:17:15;14.60;99.90
16929;DHT22;8581;47.334;11.190;2023-04-30T09:19:44;14.60;99.90
16929;DHT22;8581;47.334;11.190;2023-04-30T09:22:18;14.30;99.90
16929;DHT22;8581;47.334;11.190;2023-04-30T09:24:49;14.60;99.90
16929;DHT22;8581;47.334;11.190;2023-04-30T09:27:21;14.70;99.90
16929;DHT22;8581;47.334;11.190;2023-04-30T09:29:52;14.80;99.90
16929;DHT22;8581;47.334;11.190;2023-04-30T09:32:25;15.30;99.90
16929;DHT22;8581;47.334;11.190;2023-04-30T09:34:56;15.50;99.90
16929;DHT22;8581;47.334;11.190;2023-04-30T09:37:35;15.50;99.90
16929;DHT22;8581;47.334;11.190;2023-04-30T09:40:07;16.00;99.90
16929;DHT22;8581;47.334;11.190;2023-04-30T09:42:39;16.70;99.90
16929;DHT22;8581;47.334;11.190;2023-04-30T09:45:11;17.00;99.90
16929;DHT22;8581;47.334;11.190;2023-04-30T09:47:42;17.20;99.90
16929;DHT22;8581;47.334;11.190;2023-04-30T09:50:14;17.70;99.90
16929;DHT22;8581;47.334;11.190;2023-04-30T09:52:51;18.10;99.90
16929;DHT22;8581;47.334;11.190;2023-04-30T09:55:22;17.90;99.90
16929;DHT22;8581;47.334;11.190;2023-04-30T09:57:54;17.80;99.90
16929;DHT22;8581;47.334;11.190;2023-04-30T10:00:25;17.90;99.90
16929;DHT22;8581;47.334;11.190;2023-04-30T10:02:57;18.00;99.90
16929;DHT22;8581;47.334;11.190;2023-04-30T10:05:29;18.10;99.90
16929;DHT22;8581;47.334;11.190;2023-04-30T10:08:00;18.70;99.90
16929;DHT22;8581;47.334;11.190;2023-04-30T10:10:32;18.40;99.90
16929;DHT22;8581;47.334;11.190;2023-04-30T10:13:03;18.60;99.90
16929;DHT22;8581;47.334;11.190;2023-04-30T10:15:37;18.80;99.90
16929;DHT22;8581;47.334;11.190;2023-04-30T10:18:13;19.60;99.90
16929;DHT22;8581;47.334;11.190;2023-04-30T10:20:42;19.20;99.90
16929;DHT22;8581;47.334;11.190;2023-04-30T10:23:13;19.30;99.90
16929;DHT22;8581;47.334;11.190;2023-04-30T10:25:45;20.10;99.90
16929;DHT22;8581;47.334;11.190;2023-04-30T10:28:17;20.10;99.90
16929;DHT22;8581;47.334;11.190;2023-04-30T10:30:49;20.30;99.90
16929;DHT22;8581;47.334;11.190;2023-04-30T10:33:25;20.30;99.90
16929;DHT22;8581;47.334;11.190;2023-04-30T10:35:56;19.30;99.90
16929;DHT22;8581;47.334;11.190;2023-04-30T10:38:27;19.80;99.90
16929;DHT22;8581;47.334;11.190;2023-04-30T10:40:59;19.80;99.90
16929;DHT22;8581;47.334;11.190;2023-04-30T10:43:30;19.40;99.90
16929;DHT22;8581;47.334;11.190;2023-04-30T10:46:02;20.40;99.90
16929;DHT22;8581;47.334;11.190;2023-04-30T10:48:34;21.40;99.90
16929;DHT22;8581;47.334;11.190;2023-04-30T10:51:06;21.80;99.90
16929;DHT22;8581;47.334;11.190;2023-04-30T10:53:37;21.90;99.90
16929;DHT22;8581;47.334;11.190;2023-04-30T10:56:09;21.30;99.90
16929;DHT22;8581;47.334;11.190;2023-04-30T10:58:40;22.40;99.90
16929;DHT22;8581;47.334;11.190;2023-04-30T11:01:13;22.90;99.90
16929;DHT22;8581;47.334;11.190;2023-04-30T11:06:27;23.00;99.90
16929;DHT22;8581;47.334;11.190;2023-04-30T11:08:59;22.00;99.90
16929;DHT22;8581;47.334;11.190;2023-04-30T11:11:32;23.60;99.90
16929;DHT22;8581;47.334;11.190;2023-04-30T11:14:03;25.30;99.90
16929;DHT22;8581;47.334;11.190;2023-04-30T11:16:34;26.20;99.90
16929;DHT22;8581;47.334;11.190;2023-04-30T11:19:10;24.10;99.90
16929;DHT22;8581;47.334;11.190;2023-04-30T11:21:41;24.30;99.90
16929;DHT22;8581;47.334;11.190;2023-04-30T11:24:12;23.40;99.90
16929;DHT22;8581;47.334;11.190;2023-04-30T11:27:01;22.50;99.90
16929;DHT22;8581;47.334;11.190;2023-04-30T11:29:26;21.20;99.90
16929;DHT22;8581;47.334;11.190;2023-04-30T11:32:00;20.60;99.90
16929;DHT22;8581;47.334;11.190;2023-04-30T11:34:32;21.60;99.90
16929;DHT22;8581;47.334;11.190;2023-04-30T11:37:03;20.60;99.90
16929;DHT22;8581;47.334;11.190;2023-04-30T11:39:35;19.60;99.90
16929;DHT22;8581;47.334;11.190;2023-04-30T11:42:06;19.60;99.90
16929;DHT22;8581;47.334;11.190;2023-04-30T11:44:38;19.10;99.90
16929;DHT22;8581;47.334;11.190;2023-04-30T11:47:10;19.00;99.90
16929;DHT22;8581;47.334;11.190;2023-04-30T11:49:42;19.50;99.90
16929;DHT22;8581;47.334;11.190;2023-04-30T11:52:14;20.10;99.90
16929;DHT22;8581;47.334;11.190;2023-04-30T11:54:45;19.30;99.90
16929;DHT22;8581;47.334;11.190;2023-04-30T11:57:18;19.30;99.90
16929;DHT22;8581;47.334;11.190;2023-04-30T11:59:50;19.70;99.90
16929;DHT22;8581;47.334;11.190;2023-04-30T12:02:22;21.20;99.90
16929;DHT22;8581;47.334;11.190;2023-04-30T12:04:53;21.80;99.90
16929;DHT22;8581;47.334;11.190;2023-04-30T12:07:25;24.60;99.90
16929;DHT22;8581;47.334;11.190;2023-04-30T12:09:57;27.50;99.90
16929;DHT22;8581;47.334;11.190;2023-04-30T12:12:29;28.70;96.70
16929;DHT22;8581;47.334;11.190;2023-04-30T12:15:09;30.90;92.80
16929;DHT22;8581;47.334;11.190;2023-04-30T12:17:33;33.00;90.90
16929;DHT22;8581;47.334;11.190;2023-04-30T12:20:06;32.40;90.60
16929;DHT22;8581;47.334;11.190;2023-04-30T12:22:38;31.40;91.60
16929;DHT22;8581;47.334;11.190;2023-04-30T12:25:12;30.10;85.80
16929;DHT22;8581;47.334;11.190;2023-04-30T12:27:45;27.60;90.80
16929;DHT22;8581;47.334;11.190;2023-04-30T12:30:19;27.60;90.70
16929;DHT22;8581;47.334;11.190;2023-04-30T12:32:50;27.00;88.40
16929;DHT22;8581;47.334;11.190;2023-04-30T12:35:22;25.40;92.10
16929;DHT22;8581;47.334;11.190;2023-04-30T12:38:00;24.50;93.10
16929;DHT22;8581;47.334;11.190;2023-04-30T12:40:25;22.90;92.30
16929;DHT22;8581;47.334;11.190;2023-04-30T12:43:00;22.40;94.00
16929;DHT22;8581;47.334;11.190;2023-04-30T12:45:43;21.80;95.10
16929;DHT22;8581;47.334;11.190;2023-04-30T12:48:14;21.40;97.30
16929;DHT22;8581;47.334;11.190;2023-04-30T12:50:54;21.60;97.60
16929;DHT22;8581;47.334;11.190;2023-04-30T12:53:25;22.50;99.20
16929;DHT22;8581;47.334;11.190;2023-04-30T12:56:06;24.60;95.90
16929;DHT22;8581;47.334;11.190;2023-04-30T12:58:38;24.90;94.90
16929;DHT22;8581;47.334;11.190;2023-04-30T13:01:10;23.90;95.20
16929;DHT22;8581;47.334;11.190;2023-04-30T13:03:42;23.80;94.20
16929;DHT22;8581;47.334;11.190;2023-04-30T13:06:13;23.50;94.40
16929;DHT22;8581;47.334;11.190;2023-04-30T13:08:45;22.60;94.00
16929;DHT22;8581;47.334;11.190;2023-04-30T13:11:16;21.30;97.10
16929;DHT22;8581;47.334;11.190;2023-04-30T13:13:48;20.50;98.00
16929;DHT22;8581;47.334;11.190;2023-04-30T13:16:20;20.60;99.40
16929;DHT22;8581;47.334;11.190;2023-04-30T13:18:51;21.10;97.20
16929;DHT22;8581;47.334;11.190;2023-04-30T13:21:23;20.40;99.10
16929;DHT22;8581;47.334;11.190;2023-04-30T13:23:55;19.60;98.40
16929;DHT22;8581;47.334;11.190;2023-04-30T13:26:26;19.40;99.90
16929;DHT22;8581;47.334;11.190;2023-04-30T13:28:58;19.70;99.20
16929;DHT22;8581;47.334;11.190;2023-04-30T13:31:30;19.20;99.90
16929;DHT22;8581;47.334;11.190;2023-04-30T13:34:01;19.70;99.90
16929;DHT22;8581;47.334;11.190;2023-04-30T13:36:33;20.60;99.90
16929;DHT22;8581;47.334;11.190;2023-04-30T13:39:04;23.10;99.20
16929;DHT22;8581;47.334;11.190;2023-04-30T13:41:36;25.50;96.60
16929;DHT22;8581;47.334;11.190;2023-04-30T13:44:07;27.30;93.30
16929;DHT22;8581;47.334;11.190;2023-04-30T13:46:39;27.30;91.50
16929;DHT22;8581;47.334;11.190;2023-04-30T13:49:11;26.00;92.60
16929;DHT22;8581;47.334;11.190;2023-04-30T13:51:42;26.50;92.80
16929;DHT22;8581;47.334;11.190;2023-04-30T13:54:14;27.10;92.10
16929;DHT22;8581;47.334;11.190;2023-04-30T13:56:46;27.40;90.80
16929;DHT22;8581;47.334;11.190;2023-04-30T13:59:18;24.50;92.90
16929;DHT22;8581;47.334;11.190;2023-04-30T14:01:49;22.80;95.00
16929;DHT22;8581;47.334;11.190;2023-04-30T14:04:21;22.30;96.20
16929;DHT22;8581;47.334;11.190;2023-04-30T14:06:53;21.10;97.10
16929;DHT22;8581;47.334;11.190;2023-04-30T14:09:24;20.90;97.50
16929;DHT22;8581;47.334;11.190;2023-04-30T14:11:56;20.50;98.30
16929;DHT22;8581;47.334;11.190;2023-04-30T14:14:27;20.20;98.40
16929;DHT22;8581;47.334;11.190;2023-04-30T14:16:59;21.20;98.90
16929;DHT22;8581;47.334;11.190;2023-04-30T14:19:31;23.40;96.30
16929;DHT22;8581;47.334;11.190;2023-04-30T14:22:02;22.70;95.60
16929;DHT22;8581;47.334;11.190;2023-04-30T14:24:34;22.30;97.20
16929;DHT22;8581;47.334;11.190;2023-04-30T14:27:06;24.10;94.50
16929;DHT22;8581;47.334;11.190;2023-04-30T14:29:37;24.90;93.50
16929;DHT22;8581;47.334;11.190;2023-04-30T14:32:09;25.10;93.90
16929;DHT22;8581;47.334;11.190;2023-04-30T14:34:40;24.90;94.10
16929;DHT22;8581;47.334;11.190;2023-04-30T14:37:12;24.90;93.40
16929;DHT22;8581;47.334;11.190;2023-04-30T14:39:44;25.10;93.30
16929;DHT22;8581;47.334;11.190;2023-04-30T14:42:15;24.50;94.30
16929;DHT22;8581;47.334;11.190;2023-04-30T14:44:47;25.60;93.50
16929;DHT22;8581;47.334;11.190;2023-04-30T14:47:18;25.00;93.20
16929;DHT22;8581;47.334;11.190;2023-04-30T14:49:50;25.10;92.90
16929;DHT22;8581;47.334;11.190;2023-04-30T14:52:22;24.30;94.30
16929;DHT22;8581;47.334;11.190;2023-04-30T14:54:53;24.00;95.00
16929;DHT22;8581;47.334;11.190;2023-04-30T14:57:25;25.80;93.40
16929;DHT22;8581;47.334;11.190;2023-04-30T14:59:56;26.60;92.40
16929;DHT22;8581;47.334;11.190;2023-04-30T15:02:28;25.90;92.10
16929;DHT22;8581;47.334;11.190;2023-04-30T15:05:00;26.20;91.80
16929;DHT22;8581;47.334;11.190;2023-04-30T15:07:31;24.90;92.90
16929;DHT22;8581;47.334;11.190;2023-04-30T15:10:03;24.60;93.50
16929;DHT22;8581;47.334;11.190;2023-04-30T15:12:35;25.00;93.80
16929;DHT22;8581;47.334;11.190;2023-04-30T15:15:07;25.50;92.60
16929;DHT22;8581;47.334;11.190;2023-04-30T15:17:39;25.90;92.10
16929;DHT22;8581;47.334;11.190;2023-04-30T15:20:11;24.80;93.20
16929;DHT22;8581;47.334;11.190;2023-04-30T15:22:42;25.20;93.50
16929;DHT22;8581;47.334;11.190;2023-04-30T15:25:14;24.80;92.90
16929;DHT22;8581;47.334;11.190;2023-04-30T15:27:45;24.60;93.90
16929;DHT22;8581;47.334;11.190;2023-04-30T15:30:17;23.50;94.50
16929;DHT22;8581;47.334;11.190;2023-04-30T15:32:49;23.00;95.20
16929;DHT22;8581;47.334;11.190;2023-04-30T15:35:20;22.20;95.80
16929;DHT22;8581;47.334;11.190;2023-04-30T15:37:52;21.40;96.90
16929;DHT22;8581;47.334;11.190;2023-04-30T15:40:24;21.00;97.30
16929;DHT22;8581;47.334;11.190;2023-04-30T15:42:55;20.90;97.70
16929;DHT22;8581;47.334;11.190;2023-04-30T15:45:27;20.90;98.00
16929;DHT22;8581;47.334;11.190;2023-04-30T15:47:58;20.60;98.50
16929;DHT22;8581;47.334;11.190;2023-04-30T15:50:30;20.60;98.10
16929;DHT22;8581;47.334;11.190;2023-04-30T15:53:02;20.20;99.20
16929;DHT22;8581;47.334;11.190;2023-04-30T15:55:34;20.30;99.70
16929;DHT22;8581;47.334;11.190;2023-04-30T15:58:05;20.00;99.30
16929;DHT22;8581;47.334;11.190;2023-04-30T16:00:36;19.60;99.80
16929;DHT22;8581;47.334;11.190;2023-04-30T16:03:08;19.90;99.60
16929;DHT22;8581;47.334;11.190;2023-04-30T16:05:40;20.20;99.90
16929;DHT22;8581;47.334;11.190;2023-04-30T16:08:11;21.10;99.30
16929;DHT22;8581;47.334;11.190;2023-04-30T16:10:43;21.40;97.90
16929;DHT22;8581;47.334;11.190;2023-04-30T16:13:15;21.20;98.90
16929;DHT22;8581;47.334;11.190;2023-04-30T16:15:46;21.50;97.70